sensor_id;sensor_type;location;lat;lon;timestamp;temperature;humidity
5007;DHT22;2522;50.972;11.046;2022-10-31T04:30:42;11.60;99.90
5007;DHT22;2522;50.972;11.046;2022-10-31T04:33:09;11.60;99.90
5007;DHT22;2522;50.972;11.046;2022-10-31T04:35:36;11.50;99.90
5007;DHT22;2522;50.972;11.046;2022-10-31T04:38:03;11.50;99.90
5007;DHT22;2522;50.972;11.046;2022-10-31T04:40:30;11.50;99.90
5007;DHT22;2522;50.972;11.046;2022-10-31T04:42:57;11.50;99.90
5007;DHT22;2522;50.972;11.046;2022-10-31T04:45:24;11.50;99.90
5007;DHT22;2522;50.972;11.046;2022-10-31T04:47:52;11.50;99.90
5007;DHT22;2522;50.972;11.046;2022-10-31T04:50:19;11.50;99.90
5007;DHT22;2522;50.972;11.046;2022-10-31T04:52:46;11.40;99.90
5007;DHT22;2522;50.972;11.046;2022-10-31T04:55:14;11.40;99.90
5007;DHT22;2522;50.972;11.046;2022-10-31T04:57:41;11.40;99.90
5007;DHT22;2522;50.972;11.046;2022-10-31T05:00:09;11.40;99.90
5007;DHT22;2522;50.972;11.046;2022-10-31T05:02:43;11.30;99.90
5007;DHT22;2522;50.972;11.046;2022-10-31T05:05:11;11.30;99.90
5007;DHT22;2522;50.972;11.046;2022-10-31T05:07:39;11.30;99.90
5007;DHT22;2522;50.972;11.046;2022-10-31T05:10:08;11.30;99.90
5007;DHT22;2522;50.972;11.046;2022-10-31T05:12:36;11.30;99.90
5007;DHT22;2522;50.972;11.046;2022-10-31T05:15:04;11.30;99.90
5007;DHT22;2522;50.972;11.046;2022-10-31T05:17:31;11.30;99.90
5007;DHT22;2522;50.972;11.046;2022-10-31T05:19:58;11.30;99.90
5007;DHT22;2522;50.972;11.046;2022-10-31T05:22:27;11.30;99.90
5007;DHT22;2522;50.972;11.046;2022-10-31T05:24:54;11.30;99.90
5007;DHT22;2522;50.972;11.046;2022-10-31T05:27:21;11.30;99.90
5007;DHT22;2522;50.972;11.046;2022-10-31T05:29:47;11.20;99.90
5007;DHT22;2522;50.972;11.046;2022-10-31T05:32:14;11.20;99.90
5007;DHT22;2522;50.972;11.046;2022-10-31T05:34:41;11.10;99.90
5007;DHT22;2522;50.972;11.046;2022-10-31T05:37:08;11.10;99.90
5007;DHT22;2522;50.972;11.046;2022-10-31T05:39:37;11.10;99.90
5007;DHT22;2522;50.972;11.046;2022-10-31T05:42:04;11.10;99.90
5007;DHT22;2522;50.972;11.046;2022-10-31T05:44:30;11.10;99.90
5007;DHT22;2522;50.972;11.046;2022-10-31T05:46:57;11.10;99.90
5007;DHT22;2522;50.972;11.046;2022-10-31T05:49:24;11.00;99.90
5007;DHT22;2522;50.972;11.046;2022-10-31T05:51:51;11.00;99.90
5007;DHT22;2522;50.972;11.046;2022-10-31T05:54:18;11.00;99.90
5007;DHT22;2522;50.972;11.046;2022-10-31T05:56:46;11.00;99.90
5007;DHT22;2522;50.972;11.046;2022-10-31T05:59:13;11.00;99.90
5007;DHT22;2522;50.972;11.046;2022-10-31T06:01:40;11.00;99.90
5007;DHT22;2522;50.972;11.046;2022-10-31T06:04:07;11.00;99.90
5007;DHT22;2522;50.972;11.046;2022-10-31T06:06:34;11.00;99.90
5007;DHT22;2522;50.972;11.046;2022-10-31T06:09:01;11.00;99.90
5007;DHT22;2522;50.972;11.046;2022-10-31T06:11:28;11.00;99.90
5007;DHT22;2522;50.972;11.046;2022-10-31T06:13:56;11.00;99.90
5007;DHT22;2522;50.972;11.046;2022-10-31T06:16:23;11.00;99.90
5007;DHT22;2522;50.972;11.046;2022-10-31T06:18:50;11.00;99.90
5007;DHT22;2522;50.972;11.046;2022-10-31T06:21:17;11.00;99.90
5007;DHT22;2522;50.972;11.046;2022-10-31T06:23:44;11.10;99.90
5007;DHT22;2522;50.972;11.046;2022-10-31T06:26:11;11.10;99.90
5007;DHT22;2522;50.972;11.046;2022-10-31T06:28:37;11.10;99.90
5007;DHT22;2522;50.972;11.046;2022-10-31T06:31:06;11.10;99.90
5007;DHT22;2522;50.972;11.046;2022-10-31T06:33:33;11.10;99.90
5007;DHT22;2522;50.972;11.046;2022-10-31T06:36:01;11.20;99.90
5007;DHT22;2522;50.972;11.046;2022-10-31T06:38:28;11.20;99.90
5007;DHT22;2522;50.972;11.046;2022-10-31T06:40:55;11.20;99.90
5007;DHT22;2522;50.972;11.046;2022-10-31T06:43:22;11.20;99.90
5007;DHT22;2522;50.972;11.046;2022-10-31T06:45:49;11.20;99.90
5007;DHT22;2522;50.972;11.046;2022-10-31T06:48:18;11.20;99.90
5007;DHT22;2522;50.972;11.046;2022-10-31T06:50:45;11.20;99.90
5007;DHT22;2522;50.972;11.046;2022-10-31T06:53:12;11.30;99.90
5007;DHT22;2522;50.972;11.046;2022-10-31T06:55:43;11.30;99.90
5007;DHT22;2522;50.972;11.046;2022-10-31T06:58:11;11.40;99.90
5007;DHT22;2522;50.972;11.046;2022-10-31T07:00:38;11.40;99.90
5007;DHT22;2522;50.972;11.046;2022-10-31T07:03:06;11.50;99.90
5007;DHT22;2522;50.972;11.046;2022-10-31T07:05:35;11.50;99.90
5007;DHT22;2522;50.972;11.046;2022-10-31T07:08:04;11.60;99.90
5007;DHT22;2522;50.972;11.046;2022-10-31T07:10:32;11.60;99.90
5007;DHT22;2522;50.972;11.046;2022-10-31T07:13:01;11.60;99.90
5007;DHT22;2522;50.972;11.046;2022-10-31T07:15:29;11.70;99.90
5007;DHT22;2522;50.972;11.046;2022-10-31T07:17:59;11.70;99.90
5007;DHT22;2522;50.972;11.046;2022-10-31T07:20:26;11.90;99.90
5007;DHT22;2522;50.972;11.046;2022-10-31T07:22:55;11.90;99.90
5007;DHT22;2522;50.972;11.046;2022-10-31T07:25:22;11.90;99.90
5007;DHT22;2522;50.972;11.046;2022-10-31T07:27:49;12.00;99.90
5007;DHT22;2522;50.972;11.046;2022-10-31T07:30:17;12.00;99.90
5007;DHT22;2522;50.972;11.046;2022-10-31T07:32:46;12.10;99.90
5007;DHT22;2522;50.972;11.046;2022-10-31T07:35:14;12.20;99.90
5007;DHT22;2522;50.972;11.046;2022-10-31T07:37:42;12.20;99.90
5007;DHT22;2522;50.972;11.046;2022-10-31T07:40:19;12.30;99.90
5007;DHT22;2522;50.972;11.046;2022-10-31T07:42:47;12.40;99.90
5007;DHT22;2522;50.972;11.046;2022-10-31T07:45:16;12.40;99.90
5007;DHT22;2522;50.972;11.046;2022-10-31T07:47:45;12.50;99.90
5007;DHT22;2522;50.972;11.046;2022-10-31T07:50:14;12.60;99.90
5007;DHT22;2522;50.972;11.046;2022-10-31T07:52:42;12.70;99.90
5007;DHT22;2522;50.972;11.046;2022-10-31T07:55:10;12.70;99.90
5007;DHT22;2522;50.972;11.046;2022-10-31T07:57:38;12.80;99.90
5007;DHT22;2522;50.972;11.046;2022-10-31T08:00:12;12.90;99.90
5007;DHT22;2522;50.972;11.046;2022-10-31T08:02:39;13.00;99.90
5007;DHT22;2522;50.972;11.046;2022-10-31T08:05:06;13.10;99.90
5007;DHT22;2522;50.972;11.046;2022-10-31T08:07:36;13.20;99.90
5007;DHT22;2522;50.972;11.046;2022-10-31T08:10:04;13.30;99.90
5007;DHT22;2522;50.972;11.046;2022-10-31T08:12:31;13.30;99.90
5007;DHT22;2522;50.972;11.046;2022-10-31T08:15:00;13.40;99.90
5007;DHT22;2522;50.972;11.046;2022-10-31T08:17:27;13.50;99.90
5007;DHT22;2522;50.972;11.046;2022-10-31T08:19:55;13.50;99.90
5007;DHT22;2522;50.972;11.046;2022-10-31T08:22:22;13.60;99.90
5007;DHT22;2522;50.972;11.046;2022-10-31T08:24:49;13.70;99.90
5007;DHT22;2522;50.972;11.046;2022-10-31T08:27:16;13.80;99.90
5007;DHT22;2522;50.972;11.046;2022-10-31T08:29:43;13.80;99.90
5007;DHT22;2522;50.972;11.046;2022-10-31T08:32:11;13.90;99.90
5007;DHT22;2522;50.972;11.046;2022-10-31T08:34:38;14.00;99.90
5007;DHT22;2522;50.972;11.046;2022-10-31T08:37:05;14.10;99.90
5007;DHT22;2522;50.972;11.046;2022-10-31T08:39:32;14.10;99.90
5007;DHT22;2522;50.972;11.046;2022-10-31T08:41:59;14.30;99.90
5007;DHT22;2522;50.972;11.046;2022-10-31T08:44:25;14.40;99.90
5007;DHT22;2522;50.972;11.046;2022-10-31T08:46:53;14.50;99.90
5007;DHT22;2522;50.972;11.046;2022-10-31T08:49:21;14.60;99.90
5007;DHT22;2522;50.972;11.046;2022-10-31T08:51:48;14.70;99.90
5007;DHT22;2522;50.972;11.046;2022-10-31T08:54:15;14.80;99.90
5007;DHT22;2522;50.972;11.046;2022-10-31T08:56:42;14.90;99.90
5007;DHT22;2522;50.972;11.046;2022-10-31T08:59:09;15.00;99.90
5007;DHT22;2522;50.972;11.046;2022-10-31T09:01:36;15.00;99.90
5007;DHT22;2522;50.972;11.046;2022-10-31T09:04:05;15.10;99.90
5007;DHT22;2522;50.972;11.046;2022-10-31T09:06:33;15.20;99.90
5007;DHT22;2522;50.972;11.046;2022-10-31T09:08:59;15.20;99.90
5007;DHT22;2522;50.972;11.046;2022-10-31T09:11:26;15.20;99.90
5007;DHT22;2522;50.972;11.046;2022-10-31T09:13:53;15.30;99.90
5007;DHT22;2522;50.972;11.046;2022-10-31T09:16:19;15.30;99.90
5007;DHT22;2522;50.972;11.046;2022-10-31T09:18:46;15.30;99.90
5007;DHT22;2522;50.972;11.046;2022-10-31T09:21:13;15.30;99.90
5007;DHT22;2522;50.972;11.046;2022-10-31T09:23:41;15.40;99.90
5007;DHT22;2522;50.972;11.046;2022-10-31T09:26:08;15.50;99.90
5007;DHT22;2522;50.972;11.046;2022-10-31T09:28:36;15.50;99.90
5007;DHT22;2522;50.972;11.046;2022-10-31T09:31:03;15.50;99.90
5007;DHT22;2522;50.972;11.046;2022-10-31T09:33:30;15.60;99.90
5007;DHT22;2522;50.972;11.046;2022-10-31T09:35:57;15.70;99.90
5007;DHT22;2522;50.972;11.046;2022-10-31T09:38:24;15.70;99.90
5007;DHT22;2522;50.972;11.046;2022-10-31T09:40:55;15.90;99.90
5007;DHT22;2522;50.972;11.046;2022-10-31T09:43:23;15.90;99.90
5007;DHT22;2522;50.972;11.046;2022-10-31T09:45:54;16.00;99.90
5007;DHT22;2522;50.972;11.046;2022-10-31T09:48:31;16.10;99.90
5007;DHT22;2522;50.972;11.046;2022-10-31T09:51:00;16.20;99.90
5007;DHT22;2522;50.972;11.046;2022-10-31T09:53:31;16.30;99.90
5007;DHT22;2522;50.972;11.046;2022-10-31T09:56:00;16.40;99.90
5007;DHT22;2522;50.972;11.046;2022-10-31T09:58:28;16.50;99.90
5007;DHT22;2522;50.972;11.046;2022-10-31T10:00:56;16.50;99.90
5007;DHT22;2522;50.972;11.046;2022-10-31T10:03:28;16.60;99.90
5007;DHT22;2522;50.972;11.046;2022-10-31T10:05:58;16.70;99.90
5007;DHT22;2522;50.972;11.046;2022-10-31T10:08:30;16.70;99.90
5007;DHT22;2522;50.972;11.046;2022-10-31T10:10:59;16.70;99.90
5007;DHT22;2522;50.972;11.046;2022-10-31T10:13:41;16.80;99.90
5007;DHT22;2522;50.972;11.046;2022-10-31T10:16:24;16.90;99.90
5007;DHT22;2522;50.972;11.046;2022-10-31T10:19:02;17.00;99.90
5007;DHT22;2522;50.972;11.046;2022-10-31T10:21:34;17.00;99.90
5007;DHT22;2522;50.972;11.046;2022-10-31T10:24:10;17.10;99.90
5007;DHT22;2522;50.972;11.046;2022-10-31T10:26:40;17.10;99.90
5007;DHT22;2522;50.972;11.046;2022-10-31T10:29:17;17.20;99.90
5007;DHT22;2522;50.972;11.046;2022-10-31T10:31:47;17.10;99.90
5007;DHT22;2522;50.972;11.046;2022-10-31T10:34:16;17.20;99.90
5007;DHT22;2522;50.972;11.046;2022-10-31T10:36:46;17.20;99.90
5007;DHT22;2522;50.972;11.046;2022-10-31T10:39:15;17.20;99.90
5007;DHT22;2522;50.972;11.046;2022-10-31T10:41:43;17.30;99.90
5007;DHT22;2522;50.972;11.046;2022-10-31T10:44:12;17.30;99.90
5007;DHT22;2522;50.972;11.046;2022-10-31T10:46:41;17.40;99.90
5007;DHT22;2522;50.972;11.046;2022-10-31T10:49:28;17.40;99.90
5007;DHT22;2522;50.972;11.046;2022-10-31T10:51:58;17.40;99.90
5007;DHT22;2522;50.972;11.046;2022-10-31T10:54:33;17.50;99.90
5007;DHT22;2522;50.972;11.046;2022-10-31T10:57:08;17.50;99.90
5007;DHT22;2522;50.972;11.046;2022-10-31T10:59:39;17.60;99.90
5007;DHT22;2522;50.972;11.046;2022-10-31T11:02:13;17.60;99.90
5007;DHT22;2522;50.972;11.046;2022-10-31T11:04:42;17.70;99.90
5007;DHT22;2522;50.972;11.046;2022-10-31T11:07:09;17.70;99.90
5007;DHT22;2522;50.972;11.046;2022-10-31T11:09:36;17.70;99.90
5007;DHT22;2522;50.972;11.046;2022-10-31T11:12:06;17.70;99.90
5007;DHT22;2522;50.972;11.046;2022-10-31T11:14:35;17.70;99.90
5007;DHT22;2522;50.972;11.046;2022-10-31T11:17:09;17.80;99.90
5007;DHT22;2522;50.972;11.046;2022-10-31T11:19:37;17.80;99.90
5007;DHT22;2522;50.972;11.046;2022-10-31T11:22:07;17.80;99.90
5007;DHT22;2522;50.972;11.046;2022-10-31T11:24:38;17.90;99.90
5007;DHT22;2522;50.972;11.046;2022-10-31T11:27:11;17.90;99.90
5007;DHT22;2522;50.972;11.046;2022-10-31T11:29:39;17.90;99.90
5007;DHT22;2522;50.972;11.046;2022-10-31T11:32:14;18.00;99.90
5007;DHT22;2522;50.972;11.046;2022-10-31T11:34:43;18.00;99.90
5007;DHT22;2522;50.972;11.046;2022-10-31T11:37:12;18.00;99.90
5007;DHT22;2522;50.972;11.046;2022-10-31T11:39:40;18.10;99.90
5007;DHT22;2522;50.972;11.046;2022-10-31T11:42:07;18.10;99.90
5007;DHT22;2522;50.972;11.046;2022-10-31T11:44:34;18.10;99.90
5007;DHT22;2522;50.972;11.046;2022-10-31T11:47:02;18.10;99.90
5007;DHT22;2522;50.972;11.046;2022-10-31T11:49:32;18.20;99.90
5007;DHT22;2522;50.972;11.046;2022-10-31T11:52:02;18.20;99.90
5007;DHT22;2522;50.972;11.046;2022-10-31T11:54:30;18.20;99.90
5007;DHT22;2522;50.972;11.046;2022-10-31T11:56:58;18.20;99.90
5007;DHT22;2522;50.972;11.046;2022-10-31T11:59:26;18.30;99.90
5007;DHT22;2522;50.972;11.046;2022-10-31T12:01:54;18.30;99.90
5007;DHT22;2522;50.972;11.046;2022-10-31T12:04:27;18.30;99.90
5007;DHT22;2522;50.972;11.046;2022-10-31T12:06:56;18.30;99.90
5007;DHT22;2522;50.972;11.046;2022-10-31T12:09:24;18.30;99.90
5007;DHT22;2522;50.972;11.046;2022-10-31T12:12:03;18.40;99.90
5007;DHT22;2522;50.972;11.046;2022-10-31T12:14:34;18.40;99.90
5007;DHT22;2522;50.972;11.046;2022-10-31T12:17:06;18.40;99.90
5007;DHT22;2522;50.972;11.046;2022-10-31T12:19:39;18.40;99.90
5007;DHT22;2522;50.972;11.046;2022-10-31T12:22:11;18.40;99.90
5007;DHT22;2522;50.972;11.046;2022-10-31T12:24:49;18.40;99.90
5007;DHT22;2522;50.972;11.046;2022-10-31T12:27:22;18.40;99.90
5007;DHT22;2522;50.972;11.046;2022-10-31T12:29:55;18.40;99.90
5007;DHT22;2522;50.972;11.046;2022-10-31T12:32:27;18.40;99.90
5007;DHT22;2522;50.972;11.046;2022-10-31T12:35:05;18.50;99.90
5007;DHT22;2522;50.972;11.046;2022-10-31T12:37:40;18.60;99.90
5007;DHT22;2522;50.972;11.046;2022-10-31T12:40:22;18.60;99.90
5007;DHT22;2522;50.972;11.046;2022-10-31T12:42:53;18.70;99.90
5007;DHT22;2522;50.972;11.046;2022-10-31T12:45:36;18.70;99.90
5007;DHT22;2522;50.972;11.046;2022-10-31T12:48:18;18.70;99.90
5007;DHT22;2522;50.972;11.046;2022-10-31T12:50:50;18.70;99.90
5007;DHT22;2522;50.972;11.046;2022-10-31T12:53:32;18.70;99.90
5007;DHT22;2522;50.972;11.046;2022-10-31T12:56:09;18.70;99.90
5007;DHT22;2522;50.972;11.046;2022-10-31T12:58:40;18.70;99.90
5007;DHT22;2522;50.972;11.046;2022-10-31T13:01:11;18.70;99.90
5007;DHT22;2522;50.972;11.046;2022-10-31T13:03:42;18.70;99.90
5007;DHT22;2522;50.972;11.046;2022-10-31T13:06:13;18.70;99.90
5007;DHT22;2522;50.972;11.046;2022-10-31T13:08:42;18.70;99.90
5007;DHT22;2522;50.972;11.046;2022-10-31T13:11:12;18.70;99.90
5007;DHT22;2522;50.972;11.046;2022-10-31T13:13:41;18.70;99.90
5007;DHT22;2522;50.972;11.046;2022-10-31T13:16:10;18.70;99.90
5007;DHT22;2522;50.972;11.046;2022-10-31T13:18:38;18.70;99.90
5007;DHT22;2522;50.972;11.046;2022-10-31T13:21:07;18.80;99.90
5007;DHT22;2522;50.972;11.046;2022-10-31T13:23:35;18.70;99.90
5007;DHT22;2522;50.972;11.046;2022-10-31T13:26:06;18.70;99.90
5007;DHT22;2522;50.972;11.046;2022-10-31T13:28:35;18.70;99.90
5007;DHT22;2522;50.972;11.046;2022-10-31T13:31:02;18.70;99.90
5007;DHT22;2522;50.972;11.046;2022-10-31T13:33:30;18.80;99.90
5007;DHT22;2522;50.972;11.046;2022-10-31T13:36:01;18.80;99.90
5007;DHT22;2522;50.972;11.046;2022-10-31T13:38:33;18.70;99.90
5007;DHT22;2522;50.972;11.046;2022-10-31T13:41:04;18.70;99.90
5007;DHT22;2522;50.972;11.046;2022-10-31T13:43:35;18.70;99.90
5007;DHT22;2522;50.972;11.046;2022-10-31T13:48:46;18.70;99.90
5007;DHT22;2522;50.972;11.046;2022-10-31T13:51:12;18.70;99.90
5007;DHT22;2522;50.972;11.046;2022-10-31T13:53:56;18.70;99.90
5007;DHT22;2522;50.972;11.046;2022-10-31T13:56:25;18.70;99.90
5007;DHT22;2522;50.972;11.046;2022-10-31T13:58:56;18.70;99.90
5007;DHT22;2522;50.972;11.046;2022-10-31T14:01:24;18.70;99.90
5007;DHT22;2522;50.972;11.046;2022-10-31T14:03:56;18.70;99.90
5007;DHT22;2522;50.972;11.046;2022-10-31T14:06:23;18.70;99.90
5007;DHT22;2522;50.972;11.046;2022-10-31T14:09:00;18.70;99.90
5007;DHT22;2522;50.972;11.046;2022-10-31T14:11:28;18.70;99.90
5007;DHT22;2522;50.972;11.046;2022-10-31T14:13:56;18.70;99.90
5007;DHT22;2522;50.972;11.046;2022-10-31T14:16:27;18.60;99.90
5007;DHT22;2522;50.972;11.046;2022-10-31T14:18:58;18.60;99.90
5007;DHT22;2522;50.972;11.046;2022-10-31T14:21:28;18.60;99.90
5007;DHT22;2522;50.972;11.046;2022-10-31T14:23:55;18.50;99.90
5007;DHT22;2522;50.972;11.046;2022-10-31T14:26:33;18.60;99.90
5007;DHT22;2522;50.972;11.046;2022-10-31T14:29:01;18.50;99.90
5007;DHT22;2522;50.972;11.046;2022-10-31T14:31:32;18.50;99.90
5007;DHT22;2522;50.972;11.046;2022-10-31T14:34:03;18.50;99.90
5007;DHT22;2522;50.972;11.046;2022-10-31T14:36:39;18.40;99.90
5007;DHT22;2522;50.972;11.046;2022-10-31T14:39:09;18.40;99.90
5007;DHT22;2522;50.972;11.046;2022-10-31T14:41:47;18.30;99.90
5007;DHT22;2522;50.972;11.046;2022-10-31T14:47:13;18.20;99.90
5007;DHT22;2522;50.972;11.046;2022-10-31T14:49:57;18.20;99.90
5007;DHT22;2522;50.972;11.046;2022-10-31T14:52:29;18.20;99.90
5007;DHT22;2522;50.972;11.046;2022-10-31T14:54:59;18.20;99.90
5007;DHT22;2522;50.972;11.046;2022-10-31T14:57:34;18.20;99.90
5007;DHT22;2522;50.972;11.046;2022-10-31T15:00:05;18.20;99.90
5007;DHT22;2522;50.972;11.046;2022-10-31T15:02:34;18.10;99.90
5007;DHT22;2522;50.972;11.046;2022-10-31T15:05:07;18.10;99.90
5007;DHT22;2522;50.972;11.046;2022-10-31T15:07:34;18.10;99.90
5007;DHT22;2522;50.972;11.046;2022-10-31T15:10:04;18.10;99.90
5007;DHT22;2522;50.972;11.046;2022-10-31T15:12:34;18.10;99.90
5007;DHT22;2522;50.972;11.046;2022-10-31T15:15:14;18.10;99.90
5007;DHT22;2522;50.972;11.046;2022-10-31T15:17:46;18.00;99.90
5007;DHT22;2522;50.972;11.046;2022-10-31T15:20:19;18.00;99.90
5007;DHT22;2522;50.972;11.046;2022-10-31T15:22:47;17.90;99.90
5007;DHT22;2522;50.972;11.046;2022-10-31T15:25:18;17.90;99.90
5007;DHT22;2522;50.972;11.046;2022-10-31T15:27:48;17.80;99.90
5007;DHT22;2522;50.972;11.046;2022-10-31T15:30:17;17.80;99.90
5007;DHT22;2522;50.972;11.046;2022-10-31T15:32:45;17.80;99.90
5007;DHT22;2522;50.972;11.046;2022-10-31T15:35:21;17.80;99.90
5007;DHT22;2522;50.972;11.046;2022-10-31T15:37:49;17.70;99.90
5007;DHT22;2522;50.972;11.046;2022-10-31T15:40:18;17.60;99.90
5007;DHT22;2522;50.972;11.046;2022-10-31T15:42:51;17.60;99.90
5007;DHT22;2522;50.972;11.046;2022-10-31T15:45:21;17.60;99.90
5007;DHT22;2522;50.972;11.046;2022-10-31T15:47:54;17.50;99.90
5007;DHT22;2522;50.972;11.046;2022-10-31T15:50:25;17.50;99.90
5007;DHT22;2522;50.972;11.046;2022-10-31T15:52:54;17.40;99.90
5007;DHT22;2522;50.972;11.046;2022-10-31T15:55:23;17.40;99.90
5007;DHT22;2522;50.972;11.046;2022-10-31T15:57:54;17.40;99.90
5007;DHT22;2522;50.972;11.046;2022-10-31T16:00:24;17.30;99.90
5007;DHT22;2522;50.972;11.046;2022-10-31T16:05:46;17.20;99.90
5007;DHT22;2522;50.972;11.046;2022-10-31T16:08:24;17.20;99.90
5007;DHT22;2522;50.972;11.046;2022-10-31T16:11:13;17.10;99.90
5007;DHT22;2522;50.972;11.046;2022-10-31T16:13:58;17.10;99.90
5007;DHT22;2522;50.972;11.046;2022-10-31T16:16:26;17.00;99.90
5007;DHT22;2522;50.972;11.046;2022-10-31T16:18:55;17.00;99.90
5007;DHT22;2522;50.972;11.046;2022-10-31T16:21:25;17.00;99.90
5007;DHT22;2522;50.972;11.046;2022-10-31T16:23:59;16.90;99.90
5007;DHT22;2522;50.972;11.046;2022-10-31T16:26:27;16.90;99.90
5007;DHT22;2522;50.972;11.046;2022-10-31T16:28:57;16.90;99.90
5007;DHT22;2522;50.972;11.046;2022-10-31T16:31:29;16.90;99.90
5007;DHT22;2522;50.972;11.046;2022-10-31T16:34:09;16.90;99.90
5007;DHT22;2522;50.972;11.046;2022-10-31T16:36:36;16.90;99.90
5007;DHT22;2522;50.972;11.046;2022-10-31T16:39:06;16.80;99.90
5007;DHT22;2522;50.972;11.046;2022-10-31T16:41:35;16.80;99.90
5007;DHT22;2522;50.972;11.046;2022-10-31T16:44:14;16.80;99.90
5007;DHT22;2522;50.972;11.046;2022-10-31T16:46:41;16.70;99.90
5007;DHT22;2522;50.972;11.046;2022-10-31T16:49:09;16.70;99.90
5007;DHT22;2522;50.972;11.046;2022-10-31T16:51:36;16.70;99.90
5007;DHT22;2522;50.972;11.046;2022-10-31T16:54:05;16.70;99.90
5007;DHT22;2522;50.972;11.046;2022-10-31T16:56:33;16.60;99.90
5007;DHT22;2522;50.972;11.046;2022-10-31T16:59:02;16.60;99.90
5007;DHT22;2522;50.972;11.046;2022-10-31T17:01:32;16.60;99.90
5007;DHT22;2522;50.972;11.046;2022-10-31T17:04:00;16.60;99.90
5007;DHT22;2522;50.972;11.046;2022-10-31T17:06:27;16.50;99.90
5007;DHT22;2522;50.972;11.046;2022-10-31T17:08:54;16.50;99.90
5007;DHT22;2522;50.972;11.046;2022-10-31T17:11:23;16.50;99.90
5007;DHT22;2522;50.972;11.046;2022-10-31T17:13:51;16.40;99.90
5007;DHT22;2522;50.972;11.046;2022-10-31T17:16:21;16.40;99.90
5007;DHT22;2522;50.972;11.046;2022-10-31T17:18:49;16.40;99.90
5007;DHT22;2522;50.972;11.046;2022-10-31T17:21:18;16.40;99.90
5007;DHT22;2522;50.972;11.046;2022-10-31T17:23:47;16.30;99.90
5007;DHT22;2522;50.972;11.046;2022-10-31T17:26:14;16.30;99.90
5007;DHT22;2522;50.972;11.046;2022-10-31T17:28:41;16.30;99.90
5007;DHT22;2522;50.972;11.046;2022-10-31T17:31:16;16.30;99.90
5007;DHT22;2522;50.972;11.046;2022-10-31T17:33:45;16.20;99.90
5007;DHT22;2522;50.972;11.046;2022-10-31T17:36:13;16.20;99.90
5007;DHT22;2522;50.972;11.046;2022-10-31T17:38:40;16.20;99.90
5007;DHT22;2522;50.972;11.046;2022-10-31T17:41:08;16.10;99.90
5007;DHT22;2522;50.972;11.046;2022-10-31T17:43:35;16.10;99.90
5007;DHT22;2522;50.972;11.046;2022-10-31T17:46:02;16.10;99.90
5007;DHT22;2522;50.972;11.046;2022-10-31T17:48:29;16.00;99.90
5007;DHT22;2522;50.972;11.046;2022-10-31T17:50:59;16.00;99.90
5007;DHT22;2522;50.972;11.046;2022-10-31T17:53:29;16.00;99.90
5007;DHT22;2522;50.972;11.046;2022-10-31T17:56:00;15.90;99.90
5007;DHT22;2522;50.972;11.046;2022-10-31T17:58:27;15.90;99.90
5007;DHT22;2522;50.972;11.046;2022-10-31T18:00:54;15.90;99.90
5007;DHT22;2522;50.972;11.046;2022-10-31T18:03:21;15.90;99.90
5007;DHT22;2522;50.972;11.046;2022-10-31T18:05:52;15.80;99.90
5007;DHT22;2522;50.972;11.046;2022-10-31T18:08:24;15.80;99.90
5007;DHT22;2522;50.972;11.046;2022-10-31T18:10:55;15.80;99.90
5007;DHT22;2522;50.972;11.046;2022-10-31T18:13:24;15.80;99.90
5007;DHT22;2522;50.972;11.046;2022-10-31T18:15:54;15.70;99.90
5007;DHT22;2522;50.972;11.046;2022-10-31T18:18:21;15.70;99.90
5007;DHT22;2522;50.972;11.046;2022-10-31T18:20:48;15.70;99.90
5007;DHT22;2522;50.972;11.046;2022-10-31T18:23:15;15.70;99.90
5007;DHT22;2522;50.972;11.046;2022-10-31T18:25:43;15.60;99.90
5007;DHT22;2522;50.972;11.046;2022-10-31T18:28:26;15.60;99.90
5007;DHT22;2522;50.972;11.046;2022-10-31T18:30:52;15.50;99.90
5007;DHT22;2522;50.972;11.046;2022-10-31T18:33:20;15.50;99.90
5007;DHT22;2522;50.972;11.046;2022-10-31T18:35:47;15.50;99.90
5007;DHT22;2522;50.972;11.046;2022-10-31T18:38:16;15.40;99.90
5007;DHT22;2522;50.972;11.046;2022-10-31T18:40:46;15.40;99.90
5007;DHT22;2522;50.972;11.046;2022-10-31T18:43:13;15.30;99.90
5007;DHT22;2522;50.972;11.046;2022-10-31T18:45:42;15.30;99.90
5007;DHT22;2522;50.972;11.046;2022-10-31T18:48:14;15.30;99.90
5007;DHT22;2522;50.972;11.046;2022-10-31T18:50:42;15.30;99.90
5007;DHT22;2522;50.972;11.046;2022-10-31T18:53:09;15.30;99.90
5007;DHT22;2522;50.972;11.046;2022-10-31T18:55:38;15.30;99.90
5007;DHT22;2522;50.972;11.046;2022-10-31T18:58:08;15.20;99.90
5007;DHT22;2522;50.972;11.046;2022-10-31T19:00:36;15.20;99.90
5007;DHT22;2522;50.972;11.046;2022-10-31T19:03:05;15.20;99.90
5007;DHT22;2522;50.972;11.046;2022-10-31T19:05:32;15.20;99.90
5007;DHT22;2522;50.972;11.046;2022-10-31T19:07:59;15.10;99.90
5007;DHT22;2522;50.972;11.046;2022-10-31T19:10:26;15.10;99.90
5007;DHT22;2522;50.972;11.046;2022-10-31T19:12:53;15.00;99.90
5007;DHT22;2522;50.972;11.046;2022-10-31T19:15:20;15.00;99.90
5007;DHT22;2522;50.972;11.046;2022-10-31T19:17:47;14.90;99.90
5007;DHT22;2522;50.972;11.046;2022-10-31T19:20:16;14.90;99.90
5007;DHT22;2522;50.972;11.046;2022-10-31T19:22:42;14.90;99.90
5007;DHT22;2522;50.972;11.046;2022-10-31T19:25:09;14.90;99.90
5007;DHT22;2522;50.972;11.046;2022-10-31T19:27:36;14.80;99.90
5007;DHT22;2522;50.972;11.046;2022-10-31T19:30:05;14.80;99.90
5007;DHT22;2522;50.972;11.046;2022-10-31T19:32:35;14.70;99.90
5007;DHT22;2522;50.972;11.046;2022-10-31T19:35:03;14.70;99.90
5007;DHT22;2522;50.972;11.046;2022-10-31T19:37:35;14.70;99.90
5007;DHT22;2522;50.972;11.046;2022-10-31T19:40:03;14.60;99.90
5007;DHT22;2522;50.972;11.046;2022-10-31T19:42:30;14.60;99.90
5007;DHT22;2522;50.972;11.046;2022-10-31T19:44:58;14.60;99.90
5007;DHT22;2522;50.972;11.046;2022-10-31T19:47:25;14.50;99.90
5007;DHT22;2522;50.972;11.046;2022-10-31T19:49:52;14.50;99.90
5007;DHT22;2522;50.972;11.046;2022-10-31T19:52:19;14.50;99.90
5007;DHT22;2522;50.972;11.046;2022-10-31T19:54:47;14.50;99.90
5007;DHT22;2522;50.972;11.046;2022-10-31T19:57:14;14.50;99.90
5007;DHT22;2522;50.972;11.046;2022-10-31T19:59:41;14.40;99.90
5007;DHT22;2522;50.972;11.046;2022-10-31T20:02:11;14.50;99.90
5007;DHT22;2522;50.972;11.046;2022-10-31T20:04:44;14.40;99.90
5007;DHT22;2522;50.972;11.046;2022-10-31T20:07:11;14.40;99.90
5007;DHT22;2522;50.972;11.046;2022-10-31T20:09:39;14.40;99.90
5007;DHT22;2522;50.972;11.046;2022-10-31T20:12:07;14.40;99.90
5007;DHT22;2522;50.972;11.046;2022-10-31T20:14:34;14.30;99.90
5007;DHT22;2522;50.972;11.046;2022-10-31T20:17:01;14.30;99.90
5007;DHT22;2522;50.972;11.046;2022-10-31T20:19:29;14.30;99.90
5007;DHT22;2522;50.972;11.046;2022-10-31T20:21:56;14.20;99.90
5007;DHT22;2522;50.972;11.046;2022-10-31T20:24:23;14.20;99.90
5007;DHT22;2522;50.972;11.046;2022-10-31T20:26:50;14.20;99.90
5007;DHT22;2522;50.972;11.046;2022-10-31T20:29:19;14.20;99.90
5007;DHT22;2522;50.972;11.046;2022-10-31T20:31:46;14.10;99.90
5007;DHT22;2522;50.972;11.046;2022-10-31T20:34:14;14.10;99.90
5007;DHT22;2522;50.972;11.046;2022-10-31T20:36:44;14.10;99.90